Time;durP1;ratioP1;P1;durP2;ratioP2;P2;SDS_P1;SDS_P2;PMS_P1;PMS_P2;Temp;Humidity;BMP_temperature;BMP_pressure;BME280_temperature;BME280_humidity;BME280_pressure;Samples;Min_cycle;Max_cycle;Signal;HPM_P1;HPM_P2
2021/12/05 00:18:31;;;;;;;6.38;2.70;;;;;;;-5.46;68.12;100830.97;5030398;28;20095;-68
2021/12/05 00:23:53;;;;;;;6.13;2.80;;;;;;;-5.00;67.81;100813.16;5034011;28;20051;-65
2021/12/05 00:26:22;;;;;;;5.20;2.60;;;;;;;-4.69;67.96;100825.91;5020931;28;20109;-67
2021/12/05 00:29:09;;;;;;;10.45;6.85;;;;;;;-4.61;67.19;100809.31;5037485;28;20140;-67
2021/12/05 00:40:38;;;;;;;7.95;3.75;;;;;;;-4.65;66.90;100848.19;5031811;28;20594;-68
2021/12/05 00:43:25;;;;;;;4.55;2.50;;;;;;;-4.23;66.47;100837.66;5057040;28;20116;-66
2021/12/05 00:46:17;;;;;;;42.63;18.25;;;;;;;-4.14;66.72;100838.13;5057218;28;20045;-68
2021/12/05 01:03:38;;;;;;;8.00;2.55;;;;;;;-3.85;64.05;100803.00;4977291;28;20117;-66
2021/12/05 01:09:17;;;;;;;5.35;2.10;;;;;;;-3.91;62.84;100773.81;5033778;28;20112;-66
2021/12/05 01:12:13;;;;;;;3.47;2.15;;;;;;;-3.80;63.85;100784.53;5026020;28;20372;-66
2021/12/05 01:14:57;;;;;;;7.85;2.33;;;;;;;-3.78;64.46;100779.53;5017085;28;20113;-66
2021/12/05 01:17:32;;;;;;;6.32;3.03;;;;;;;-3.84;63.63;100771.53;5017071;28;20085;-66
2021/12/05 01:20:05;;;;;;;7.03;2.83;;;;;;;-3.97;63.80;100760.75;5017193;28;20054;-64
2021/12/05 01:22:37;;;;;;;6.30;3.70;;;;;;;-4.01;64.44;100753.72;5017010;28;20328;-64
2021/12/05 01:25:18;;;;;;;7.75;3.33;;;;;;;-4.04;64.84;100753.56;5020095;28;20049;-68
2021/12/05 01:27:52;;;;;;;19.00;10.52;;;;;;;-3.97;65.32;100760.75;5025549;28;20264;-67
2021/12/05 01:30:34;;;;;;;6.55;3.78;;;;;;;-3.90;65.32;100756.81;5040479;28;20123;-68
2021/12/05 01:33:09;;;;;;;16.15;11.18;;;;;;;-3.80;66.16;100763.25;5034741;28;20221;-68
2021/12/05 01:35:54;;;;;;;9.45;6.82;;;;;;;-3.67;65.82;100774.94;5032099;28;20264;-67
2021/12/05 01:38:35;;;;;;;6.32;3.28;;;;;;;-3.59;65.15;100768.53;5040259;28;20124;-67
2021/12/05 01:41:36;;;;;;;6.28;3.88;;;;;;;-3.77;65.29;100755.72;5033748;28;20037;-67
2021/12/05 01:55:50;;;;;;;7.53;4.50;;;;;;;-4.56;67.50;100717.75;4998315;28;20274;-65
2021/12/05 02:01:27;;;;;;;4.57;3.10;;;;;;;-4.08;67.58;100736.34;5020294;28;20351;-67
2021/12/05 02:09:52;;;;;;;7.30;3.78;;;;;;;-3.49;66.78;100766.50;5027424;28;20236;-65
2021/12/05 02:15:09;;;;;;;8.13;3.55;;;;;;;-3.44;65.75;100773.47;5026778;28;20232;-67
2021/12/05 02:35:23;;;;;;;13.40;5.65;;;;;;;-3.43;64.18;100754.81;5003930;28;20077;-67
2021/12/05 02:40:49;;;;;;;8.18;3.53;;;;;;;-3.34;63.18;100747.59;5016091;28;20371;-67
2021/12/05 02:43:26;;;;;;;5.43;3.05;;;;;;;-3.59;62.70;100718.31;5026200;28;20072;-65
2021/12/05 02:45:58;;;;;;;32.17;16.80;;;;;;;-3.32;62.60;100763.84;5025960;28;20046;-66
2021/12/05 02:48:28;;;;;;;15.35;8.27;;;;;;;-3.31;61.86;100763.06;5025885;28;20635;-68
2021/12/05 02:50:58;;;;;;;11.73;8.48;;;;;;;-3.24;61.57;100767.66;5025725;28;20049;-68
2021/12/05 02:53:35;;;;;;;5.60;2.70;;;;;;;-3.31;61.03;100765.63;5026647;28;20080;-68
2021/12/05 02:56:05;;;;;;;4.78;2.15;;;;;;;-3.33;60.33;100762.13;5025707;28;20103;-67
2021/12/05 02:58:40;;;;;;;6.82;2.60;;;;;;;-3.25;60.76;100771.88;5026343;28;20144;-68
2021/12/05 03:01:17;;;;;;;3.17;1.90;;;;;;;-3.14;60.97;100774.97;5026991;28;20380;-67
2021/12/05 03:03:47;;;;;;;3.08;2.20;;;;;;;-2.97;60.79;100787.63;5026356;28;20109;-67
2021/12/05 03:06:21;;;;;;;5.53;2.38;;;;;;;-2.85;60.50;100772.88;5027905;28;20033;-67
2021/12/05 03:08:55;;;;;;;3.13;1.77;;;;;;;-2.86;60.35;100771.13;5026485;28;20072;-67
2021/12/05 03:11:24;;;;;;;4.90;1.70;;;;;;;-2.68;60.07;100791.53;5025879;28;20117;-68
2021/12/05 03:13:53;;;;;;;4.60;2.00;;;;;;;-2.82;60.59;100778.16;5025145;28;20049;-68
2021/12/05 03:16:23;;;;;;;4.72;2.50;;;;;;;-2.83;60.81;100772.13;5025495;28;20053;-68
2021/12/05 03:18:51;;;;;;;;;;;;;;;-2.77;61.14;100775.75;5025612;28;20256;-68
2021/12/05 03:21:21;;;;;;;4.55;1.88;;;;;;;-2.74;61.17;100766.56;5025131;28;19957;-67
2021/12/05 03:23:53;;;;;;;3.80;1.88;;;;;;;-2.70;61.53;100768.44;5024977;28;20052;-66
2021/12/05 03:26:24;;;;;;;4.60;1.83;;;;;;;-2.94;62.03;100759.69;5025674;28;20120;-67
2021/12/05 03:28:54;;;;;;;4.20;2.50;;;;;;;-2.91;62.27;100777.72;5025020;28;20077;-67
2021/12/05 03:31:24;;;;;;;38.22;17.00;;;;;;;-2.85;62.72;100772.88;5025218;28;20042;-67
2021/12/05 03:33:54;;;;;;;10.52;4.45;;;;;;;-2.84;63.20;100769.53;5024971;28;20049;-67
2021/12/05 03:36:24;;;;;;;21.10;13.82;;;;;;;-3.08;63.65;100765.00;5024562;28;20084;-67
2021/12/05 03:38:54;;;;;;;12.60;8.05;;;;;;;-3.23;64.44;100759.19;5024767;28;20087;-66
2021/12/05 03:41:23;;;;;;;8.13;3.50;;;;;;;-3.22;65.37;100757.50;5024938;28;20072;-67
2021/12/05 03:43:54;;;;;;;6.22;2.40;;;;;;;-3.35;65.74;100748.38;5025015;28;20080;-66
2021/12/05 03:46:24;;;;;;;4.65;2.50;;;;;;;-3.39;66.51;100751.63;5024500;28;20050;-67
2021/12/05 03:48:56;;;;;;;3.17;2.22;;;;;;;-3.48;66.89;100747.78;5024810;28;20055;-67
2021/12/05 03:51:26;;;;;;;6.30;2.47;;;;;;;-3.27;66.72;100752.16;5024745;28;20050;-66
2021/12/05 03:53:56;;;;;;;;;;;;;;;-3.22;66.64;100755.84;5025214;28;20056;-67
2021/12/05 03:56:25;;;;;;;5.97;2.60;;;;;;;-3.24;67.06;100749.78;5025610;28;20208;-66
2021/12/05 03:58:55;;;;;;;5.95;2.70;;;;;;;-3.22;67.69;100750.72;5024729;28;20352;-66
2021/12/05 04:01:25;;;;;;;7.05;2.80;;;;;;;-3.19;68.28;100743.19;5024851;28;20426;-66
2021/12/05 04:03:55;;;;;;;5.80;2.95;;;;;;;-3.12;68.22;100732.47;5024580;28;20042;-67
2021/12/05 04:06:25;;;;;;;6.00;2.70;;;;;;;-3.10;68.58;100730.81;5024903;28;20289;-68
2021/12/05 04:08:53;;;;;;;;;;;;;;;-3.15;68.63;100734.84;5024809;28;20378;-67
2021/12/05 04:11:30;;;;;;;10.40;2.92;;;;;;;-3.15;69.09;100727.19;5024316;28;20351;-67
2021/12/05 04:13:59;;;;;;;6.82;2.70;;;;;;;-3.05;68.56;100719.13;5024880;28;20042;-67
2021/12/05 04:16:28;;;;;;;7.38;2.92;;;;;;;-3.09;69.16;100712.16;5024826;28;20077;-67
2021/12/05 04:18:58;;;;;;;8.23;2.70;;;;;;;-3.05;69.24;100716.56;5024344;28;20152;-67
2021/12/05 04:21:29;;;;;;;9.43;2.92;;;;;;;-3.37;68.60;100684.44;5025072;28;20256;-67
2021/12/05 04:23:59;;;;;;;8.30;3.33;;;;;;;-3.27;69.07;100731.72;5024472;28;20073;-67
2021/12/05 04:26:29;;;;;;;5.57;2.78;;;;;;;-3.23;68.68;100738.75;5024240;28;20080;-67
2021/12/05 04:28:58;;;;;;;10.23;2.60;;;;;;;-3.22;69.23;100725.19;5024378;28;20060;-67
2021/12/05 04:31:27;;;;;;;4.35;2.47;;;;;;;-3.29;69.15;100723.13;5024631;28;20057;-67
2021/12/05 04:33:56;;;;;;;4.68;2.53;;;;;;;-3.27;69.32;100741.94;5024391;28;20084;-66
2021/12/05 04:36:25;;;;;;;3.45;2.30;;;;;;;-3.45;69.58;100729.19;5024202;28;20117;-66
2021/12/05 04:38:54;;;;;;;6.97;2.83;;;;;;;-3.41;69.63;100753.22;5023968;28;20164;-67
2021/12/05 04:41:23;;;;;;;6.78;3.00;;;;;;;-3.40;70.24;100762.63;5024637;28;20092;-67
2021/12/05 04:43:54;;;;;;;7.70;3.10;;;;;;;-3.64;70.18;100724.91;5024220;28;20045;-67
2021/12/05 04:46:25;;;;;;;7.10;3.63;;;;;;;-3.42;70.52;100769.34;5024194;28;20092;-67
2021/12/05 04:48:57;;;;;;;5.90;3.00;;;;;;;-3.40;70.92;100770.28;5023974;28;20116;-66
2021/12/05 04:51:30;;;;;;;4.50;2.78;;;;;;;-3.36;70.94;100767.09;5025579;28;20116;-67
2021/12/05 04:53:59;;;;;;;4.32;2.38;;;;;;;-3.45;71.74;100758.97;5025026;28;20056;-67
2021/12/05 04:56:29;;;;;;;5.50;3.22;;;;;;;-3.48;71.64;100768.22;5024363;28;20113;-68
2021/12/05 04:59:00;;;;;;;9.43;3.58;;;;;;;-3.53;71.11;100769.69;5025786;28;20140;-67
2021/12/05 05:01:29;;;;;;;4.38;2.92;;;;;;;-3.61;71.64;100770.13;5028214;28;20093;-67
2021/12/05 05:03:59;;;;;;;6.95;2.88;;;;;;;-3.54;72.11;100783.28;5028991;28;20081;-67
2021/12/05 05:06:28;;;;;;;7.45;2.53;;;;;;;-3.56;71.82;100784.88;5029050;28;20065;-66
2021/12/05 05:08:57;;;;;;;4.03;2.50;;;;;;;-3.54;72.35;100787.53;5027451;28;20152;-67
2021/12/05 05:11:27;;;;;;;6.00;2.65;;;;;;;-3.56;72.27;100794.22;5027676;28;20049;-67
2021/12/05 05:13:58;;;;;;;9.02;3.58;;;;;;;-3.53;72.07;100800.34;5027955;28;20128;-67
2021/12/05 05:16:27;;;;;;;11.55;4.20;;;;;;;-3.62;72.44;100794.81;5027824;28;20120;-66
2021/12/05 05:18:58;;;;;;;8.55;2.80;;;;;;;-3.68;72.70;100807.25;5027898;28;20276;-67
2021/12/05 05:27:39;;;;;;;6.43;2.85;;;;;;;-3.74;73.19;100835.06;5142415;27;20179;-66
2021/12/05 05:44:37;;;;;;;6.50;3.30;;;;;;;-3.69;74.29;100838.72;5118667;28;20044;-66
2021/12/05 05:47:09;;;;;;;8.75;3.78;;;;;;;-3.60;73.89;100859.59;5118462;28;20107;-66
2021/12/05 05:49:52;;;;;;;22.42;7.18;;;;;;;-3.59;73.88;100856.25;5116508;28;20071;-66
2021/12/05 05:52:21;;;;;;;7.28;3.40;;;;;;;-3.61;73.54;100857.84;5121282;28;20048;-66
2021/12/05 05:54:52;;;;;;;80.60;20.13;;;;;;;-3.66;73.61;100856.75;5118855;28;20047;-67
2021/12/05 05:57:26;;;;;;;13.70;5.03;;;;;;;-3.66;72.97;100864.41;5118581;28;20051;-66
2021/12/05 06:00:03;;;;;;;330.48;76.97;;;;;;;-3.69;73.07;100879.59;5117090;28;20330;-67
2021/12/05 06:05:18;;;;;;;18.20;5.80;;;;;;;-3.67;73.15;100877.97;5121016;28;20063;-66
2021/12/05 06:07:47;;;;;;;16.00;5.22;;;;;;;-3.62;73.35;100886.78;5119741;28;20231;-66
2021/12/05 06:10:18;;;;;;;6.53;3.47;;;;;;;-3.62;73.35;100884.22;5118739;28;20114;-66
2021/12/05 06:12:47;;;;;;;70.93;16.25;;;;;;;-3.64;73.51;100888.34;5116378;28;20046;-67
2021/12/05 06:15:19;;;;;;;13.07;3.97;;;;;;;-3.69;73.04;100875.34;5117904;28;20047;-67
2021/12/05 06:17:48;;;;;;;79.53;16.80;;;;;;;-3.71;72.95;100883.75;5118233;28;20043;-67
2021/12/05 06:20:19;;;;;;;35.60;10.38;;;;;;;-3.71;73.07;100883.75;5118039;28;20134;-67
2021/12/05 06:22:49;;;;;;;28.20;7.10;;;;;;;-3.81;72.87;100874.72;5119911;28;20047;-66
2021/12/05 06:25:21;;;;;;;16.75;5.68;;;;;;;-3.65;73.22;100907.03;5118665;28;20253;-67
2021/12/05 06:27:50;;;;;;;36.53;9.73;;;;;;;-3.62;72.91;100907.19;5120515;28;20258;-67
2021/12/05 06:30:31;;;;;;;7.18;3.85;;;;;;;-3.61;72.68;100911.50;5120584;28;20091;-66
2021/12/05 06:38:59;;;;;;;11.55;4.18;;;;;;;-3.55;72.91;100919.47;5062283;28;20051;-67
2021/12/05 06:41:45;;;;;;;11.82;5.55;;;;;;;-3.53;73.07;100917.88;5106486;28;20102;-67
2021/12/05 06:47:01;;;;;;;7.88;4.60;;;;;;;-3.47;73.35;100913.09;5105266;28;20144;-66
2021/12/05 06:49:30;;;;;;;11.02;3.53;;;;;;;-3.37;73.40;100933.97;5107035;28;20043;-67
2021/12/05 06:51:59;;;;;;;10.50;4.75;;;;;;;-3.35;73.18;100940.03;5106561;28;20558;-67
2021/12/05 06:54:27;;;;;;;9.43;3.60;;;;;;;-3.34;73.25;100944.38;5107052;28;20112;-67
2021/12/05 06:56:56;;;;;;;12.63;3.60;;;;;;;-3.38;73.61;100942.44;5106502;28;20056;-67
2021/12/05 06:59:25;;;;;;;7.45;3.22;;;;;;;-3.37;73.38;100949.28;5102798;28;20055;-67
2021/12/05 07:01:54;;;;;;;10.65;4.57;;;;;;;-3.33;73.78;100946.09;5105398;28;20283;-67
2021/12/05 07:07:22;;;;;;;5.35;2.80;;;;;;;-3.25;73.71;100955.03;5056977;28;20056;-67
2021/12/05 07:09:52;;;;;;;7.30;3.22;;;;;;;-3.22;73.86;100960.31;5103796;28;20040;-67
2021/12/05 07:15:32;;;;;;;12.85;4.18;;;;;;;-3.07;73.64;100949.94;5039504;28;20072;-67
2021/12/05 07:21:02;;;;;;;7.55;3.00;;;;;;;-2.98;73.12;100954.66;5080976;28;20075;-67
2021/12/05 07:23:45;;;;;;;8.25;2.92;;;;;;;-2.93;73.55;100950.63;5103615;28;20172;-67
2021/12/05 07:26:17;;;;;;;8.25;3.05;;;;;;;-2.94;73.32;100952.31;5101747;28;20062;-67
2021/12/05 07:42:41;;;;;;;10.15;3.30;;;;;;;-3.25;72.93;100874.09;5104047;28;20114;-67
2021/12/05 07:45:14;;;;;;;8.27;3.67;;;;;;;-2.70;73.00;100955.19;5105192;28;20269;-67
2021/12/05 07:47:45;;;;;;;8.15;3.63;;;;;;;-2.80;72.98;100934.22;5105490;28;20044;-66
2021/12/05 07:50:15;;;;;;;8.10;4.32;;;;;;;-2.70;72.94;100957.72;5104545;28;20211;-67
2021/12/05 07:52:50;;;;;;;11.90;5.95;;;;;;;-2.69;73.09;100954.41;5105527;28;20047;-66
2021/12/05 07:55:24;;;;;;;11.60;4.97;;;;;;;-2.65;72.95;100950.28;5105228;28;20093;-67
2021/12/05 07:58:07;;;;;;;10.50;5.00;;;;;;;-2.63;73.16;100959.78;5105240;28;20055;-66
2021/12/05 08:00:44;;;;;;;13.35;4.50;;;;;;;-2.61;73.06;100962.44;5105135;28;20324;-67
2021/12/05 08:14:28;;;;;;;24.13;6.95;;;;;;;-2.41;72.96;100981.28;5103870;28;20242;-67
2021/12/05 08:16:58;;;;;;;13.23;5.53;;;;;;;-2.40;72.42;100980.47;5101877;28;20043;-68
2021/12/05 08:19:26;;;;;;;7.53;4.05;;;;;;;-2.43;72.66;100973.53;5104086;28;20048;-67
2021/12/05 08:21:55;;;;;;;8.05;3.80;;;;;;;-2.47;72.90;100970.75;5103234;28;20059;-68
2021/12/05 08:24:30;;;;;;;12.15;3.60;;;;;;;-2.54;73.02;100963.63;5102481;28;20046;-67
2021/12/05 08:26:59;;;;;;;7.95;3.60;;;;;;;-2.44;73.03;100966.66;5102572;28;20055;-68
2021/12/05 08:29:40;;;;;;;11.45;3.80;;;;;;;-2.28;73.19;100992.97;5103810;28;20048;-67
2021/12/05 08:32:29;;;;;;;12.45;5.80;;;;;;;-2.50;72.94;100948.44;5102450;28;20047;-68
2021/12/05 08:35:16;;;;;;;12.68;4.30;;;;;;;-2.20;73.25;100977.19;5029194;28;21170;-69
2021/12/05 08:43:51;;;;;;;10.55;3.65;;;;;;;-2.08;73.55;100981.97;4963564;28;20050;-68
2021/12/05 09:28:36;;;;;;;88.97;18.63;;;;;;;-1.47;73.50;100968.50;5009834;28;20045;-67
2021/12/05 09:31:25;;;;;;;15.45;4.85;;;;;;;-1.47;73.62;100971.06;5041771;28;20072;-67
2021/12/05 10:07:51;;;;;;;15.20;4.15;;;;;;;-1.19;74.90;101000.44;5001701;28;20061;-68
2021/12/05 10:10:30;;;;;;;7.35;3.13;;;;;;;-1.19;74.86;101006.44;5039733;28;20140;-67
2021/12/05 10:13:12;;;;;;;14.65;3.80;;;;;;;-1.16;75.10;101003.13;5045521;28;20251;-68
2021/12/05 10:15:58;;;;;;;10.88;3.47;;;;;;;-1.05;74.91;101014.72;5036302;28;20143;-69
2021/12/05 10:27:23;;;;;;;8.13;3.90;;;;;;;-0.85;74.27;101042.91;5046539;28;20610;-68
2021/12/05 10:38:24;;;;;;;16.17;6.47;;;;;;;-0.84;73.93;101012.19;5040408;28;20053;-69
2021/12/05 10:41:01;;;;;;;11.98;4.38;;;;;;;-0.68;74.21;101041.91;5046167;28;20070;-69
2021/12/05 10:43:32;;;;;;;9.15;4.70;;;;;;;-0.69;74.23;101030.78;5046179;28;20052;-66
2021/12/05 10:46:09;;;;;;;11.23;4.50;;;;;;;-0.62;74.17;101039.63;5046131;28;20311;-66
2021/12/05 10:48:40;;;;;;;11.55;4.05;;;;;;;-0.53;73.91;101041.69;5046711;28;20049;-66
2021/12/05 10:51:11;;;;;;;58.58;12.43;;;;;;;-0.54;74.07;101045.06;5046488;28;20328;-69
2021/12/05 10:53:44;;;;;;;83.63;18.98;;;;;;;-0.66;74.32;101024.91;5046248;28;20065;-66
2021/12/05 10:56:20;;;;;;;11.90;4.35;;;;;;;-0.61;74.35;101028.53;5045914;28;20054;-68
2021/12/05 10:58:53;;;;;;;13.10;4.72;;;;;;;-0.59;74.48;101042.31;5004255;28;20095;-69
2021/12/05 11:01:30;;;;;;;8.73;4.20;;;;;;;-0.57;74.22;101048.38;5010781;28;20088;-69
2021/12/05 11:04:02;;;;;;;12.15;3.90;;;;;;;-0.53;74.15;101057.09;5044181;28;21120;-69
2021/12/05 11:06:35;;;;;;;12.18;3.45;;;;;;;-0.53;74.18;101057.94;5045165;28;20064;-68
2021/12/05 11:09:14;;;;;;;12.90;4.10;;;;;;;-0.55;73.88;101053.56;5045686;28;20469;-68
2021/12/05 11:11:45;;;;;;;13.80;4.20;;;;;;;-0.45;73.74;101061.72;5045777;28;20060;-68
2021/12/05 11:14:17;;;;;;;11.48;4.50;;;;;;;-0.46;73.96;101059.09;5045724;28;20225;-68
2021/12/05 11:16:49;;;;;;;33.53;9.63;;;;;;;-0.47;74.08;101053.09;5045427;28;20048;-68
2021/12/05 11:19:21;;;;;;;11.27;3.83;;;;;;;-0.50;74.41;101058.09;5046042;28;20569;-68
2021/12/05 11:21:54;;;;;;;6.80;3.55;;;;;;;-0.49;74.56;101075.25;5045296;28;20040;-68
2021/12/05 11:24:31;;;;;;;9.07;3.50;;;;;;;-0.51;74.85;101065.72;5004092;28;20099;-69
2021/12/05 11:27:16;;;;;;;8.48;3.13;;;;;;;-0.46;74.90;101070.22;5045112;28;20075;-68
2021/12/05 11:29:54;;;;;;;10.80;3.38;;;;;;;-0.42;74.63;101078.97;5045388;28;20049;-67
2021/12/05 11:32:31;;;;;;;7.00;2.78;;;;;;;-0.38;74.61;101064.53;5045037;28;20065;-67
2021/12/05 11:35:00;;;;;;;13.27;3.08;;;;;;;-0.38;73.99;101067.09;5044121;28;20060;-67
2021/12/05 11:37:29;;;;;;;7.43;3.10;;;;;;;-0.41;74.14;101061.84;5043278;28;20099;-68
2021/12/05 11:40:08;;;;;;;10.32;3.50;;;;;;;-0.39;73.88;101070.50;5045678;28;20049;-68
2021/12/05 11:42:53;;;;;;;8.50;3.45;;;;;;;-0.41;73.62;101072.13;5044950;28;20112;-67
2021/12/05 11:45:22;;;;;;;9.63;3.53;;;;;;;-0.52;73.97;101072.56;5045078;28;20336;-67
2021/12/05 11:47:53;;;;;;;11.40;3.83;;;;;;;-0.40;73.77;101081.56;5045123;28;20124;-67
2021/12/05 11:50:32;;;;;;;8.38;3.65;;;;;;;-0.47;74.17;101068.50;5045098;28;20357;-67
2021/12/05 11:53:01;;;;;;;11.80;5.03;;;;;;;-0.53;73.70;101065.66;5044449;28;20056;-67
2021/12/05 11:55:33;;;;;;;11.70;3.35;;;;;;;-0.52;74.02;101082.81;5044747;28;20339;-67
2021/12/05 11:58:02;;;;;;;9.25;3.50;;;;;;;-0.53;74.17;101068.22;5044335;28;20053;-67
2021/12/05 12:00:32;;;;;;;10.50;3.10;;;;;;;-0.73;74.36;101041.72;5044793;28;20071;-67
2021/12/05 12:03:00;;;;;;;11.07;3.50;;;;;;;-0.49;74.03;101064.97;5044385;28;20368;-67
2021/12/05 12:05:32;;;;;;;13.95;3.72;;;;;;;-0.39;73.62;101067.94;5042964;28;20055;-68
2021/12/05 12:08:07;;;;;;;11.70;3.47;;;;;;;-0.37;73.76;101059.47;5044236;28;20241;-67
2021/12/05 12:10:40;;;;;;;13.50;3.30;;;;;;;-0.23;73.45;101072.84;5044635;28;20343;-67
2021/12/05 12:13:10;;;;;;;7.88;3.30;;;;;;;-0.25;73.32;101069.34;5044601;28;20160;-67
2021/12/05 12:15:38;;;;;;;;;;;;;;;-0.17;73.55;101067.97;5045106;28;20087;-67
2021/12/05 12:18:16;;;;;;;10.48;3.40;;;;;;;-0.23;73.41;101057.44;5044209;28;19924;-67
2021/12/05 12:20:47;;;;;;;14.75;3.85;;;;;;;-0.09;73.13;101069.16;5044591;28;20077;-67
2021/12/05 12:23:16;;;;;;;10.02;3.53;;;;;;;-0.01;73.33;101090.00;5044494;28;20351;-67
2021/12/05 12:25:50;;;;;;;9.25;3.53;;;;;;;-0.03;73.01;101082.22;5043913;28;20068;-67
2021/12/05 12:28:19;;;;;;;10.15;3.63;;;;;;;-0.01;73.04;101090.88;5044374;28;20063;-67
2021/12/05 12:30:52;;;;;;;7.15;3.28;;;;;;;-0.01;73.14;101085.75;5043791;28;20197;-67
2021/12/05 12:33:24;;;;;;;6.75;2.70;;;;;;;-0.02;73.26;101086.56;5044772;28;20041;-67
2021/12/05 12:35:53;;;;;;;10.65;3.25;;;;;;;-0.03;73.00;101097.63;5043442;28;20080;-67
2021/12/05 12:38:24;;;;;;;12.10;3.30;;;;;;;-0.06;73.23;101088.94;5044037;28;20045;-67
2021/12/05 12:40:56;;;;;;;12.68;3.13;;;;;;;-0.29;73.05;101046.94;5044005;28;20181;-68
2021/12/05 12:43:41;;;;;;;12.05;3.85;;;;;;;-0.03;73.50;101096.78;5043832;28;20090;-66
2021/12/05 12:46:22;;;;;;;6.25;3.28;;;;;;;-0.01;73.56;101101.16;5042621;28;20531;-68
2021/12/05 12:48:53;;;;;;;10.10;3.47;;;;;;;0.01;73.59;101098.66;5042828;28;20587;-67
2021/12/05 12:51:36;;;;;;;13.18;3.60;;;;;;;0.07;73.52;101092.88;5041860;28;20055;-68
2021/12/05 12:54:09;;;;;;;9.25;3.28;;;;;;;0.11;73.58;101089.63;5043210;28;20055;-67
2021/12/05 12:56:40;;;;;;;9.30;2.95;;;;;;;0.13;73.67;101095.72;5044155;28;20076;-68
2021/12/05 12:59:12;;;;;;;6.80;3.20;;;;;;;0.14;74.42;101094.88;5044398;28;20048;-67
2021/12/05 13:04:39;;;;;;;11.00;3.20;;;;;;;0.15;74.66;101100.09;5042687;28;20109;-67
2021/12/05 13:10:00;;;;;;;13.73;3.10;;;;;;;0.14;75.03;101094.88;5043580;28;20104;-68
2021/12/05 13:10:24;;;;;;;14.02;3.17;;;;;;;0.12;74.80;101075.94;5043631;28;20049;-68
2021/12/05 13:12:58;;;;;;;12.00;2.85;;;;;;;0.15;74.37;101076.06;5043646;28;20075;-68
2021/12/05 13:15:34;;;;;;;12.30;3.05;;;;;;;0.19;74.53;101077.94;5043626;28;20044;-68
2021/12/05 13:18:13;;;;;;;10.23;2.85;;;;;;;0.23;74.45;101079.81;5043431;28;20041;-68
2021/12/05 13:20:56;;;;;;;12.88;4.13;;;;;;;0.23;74.31;101090.09;5043571;28;20041;-68
2021/12/05 13:23:32;;;;;;;7.05;3.28;;;;;;;0.18;74.38;101089.91;5043165;28;20049;-68
2021/12/05 13:26:19;;;;;;;9.52;2.85;;;;;;;0.13;74.81;101082.84;5043181;28;20053;-68
2021/12/05 13:28:52;;;;;;;10.70;3.25;;;;;;;0.05;74.64;101080.00;5043363;28;20049;-67
2021/12/05 13:31:43;;;;;;;11.10;3.45;;;;;;;-0.01;75.10;101069.44;5040657;28;20366;-68
2021/12/05 13:34:25;;;;;;;9.88;3.45;;;;;;;-0.13;75.19;101067.28;5042320;28;21022;-67
2021/12/05 13:36:58;;;;;;;9.50;3.25;;;;;;;-0.28;75.39;101056.38;5042263;28;20077;-68
2021/12/05 13:39:46;;;;;;;9.43;3.40;;;;;;;-0.32;75.88;101063.09;5042925;28;20041;-67
2021/12/05 13:42:17;;;;;;;8.48;3.10;;;;;;;-0.39;75.90;101066.22;5043456;28;20095;-68
2021/12/05 13:45:10;;;;;;;12.30;3.47;;;;;;;-0.47;76.29;101073.63;5043438;28;20053;-67
2021/12/05 13:47:43;;;;;;;16.35;5.05;;;;;;;-0.53;76.91;101062.22;5045484;28;20053;-67
2021/12/05 13:50:37;;;;;;;10.30;3.60;;;;;;;-1.03;76.96;100990.00;5047578;28;20053;-67
2021/12/05 13:53:21;;;;;;;11.63;3.33;;;;;;;-0.69;77.11;101060.72;5047304;28;20388;-67
2021/12/05 13:55:59;;;;;;;12.75;3.63;;;;;;;-0.65;77.76;101067.72;5047863;28;20053;-67
2021/12/05 13:58:32;;;;;;;14.30;3.83;;;;;;;-0.69;78.09;101050.44;5040212;28;20056;-67
2021/12/05 14:01:05;;;;;;;10.02;3.42;;;;;;;-0.77;78.59;101052.69;5027498;28;20120;-66
2021/12/05 14:03:59;;;;;;;7.05;3.40;;;;;;;-0.61;79.08;101053.34;5027094;28;20041;-66
2021/12/05 14:06:35;;;;;;;14.32;4.03;;;;;;;-0.68;79.11;101042.78;5027133;28;20564;-66
2021/12/05 14:09:09;;;;;;;8.27;3.63;;;;;;;-0.46;79.36;101072.81;5027386;28;20049;-67
2021/12/05 14:11:42;;;;;;;12.05;3.67;;;;;;;-0.35;79.62;101077.50;5026400;28;20050;-66
2021/12/05 14:14:11;;;;;;;20.02;4.38;;;;;;;-0.27;79.25;101076.13;5027780;28;20049;-66
2021/12/05 14:16:44;;;;;;;8.18;3.50;;;;;;;-0.16;79.51;101079.13;5027417;28;20295;-67
2021/12/05 14:19:15;;;;;;;10.75;3.78;;;;;;;-0.12;79.05;101071.59;5027351;28;20072;-67
2021/12/05 14:21:46;;;;;;;12.15;3.40;;;;;;;-0.01;79.03;101075.47;5027069;28;20053;-67
2021/12/05 14:24:17;;;;;;;7.03;4.05;;;;;;;0.09;79.02;101080.97;5027190;28;20117;-67
2021/12/05 14:26:47;;;;;;;10.13;3.67;;;;;;;0.06;78.78;101055.16;5026750;28;20153;-66
2021/12/05 14:29:19;;;;;;;14.95;3.83;;;;;;;0.09;78.55;101061.28;5026836;28;20112;-65
2021/12/05 14:31:52;;;;;;;13.98;3.67;;;;;;;0.22;78.41;101078.03;5026786;28;20116;-66
2021/12/05 14:34:22;;;;;;;15.93;3.85;;;;;;;0.23;78.41;101074.69;5026608;28;20111;-66
2021/12/05 14:36:54;;;;;;;13.30;3.95;;;;;;;0.23;78.46;101072.09;5026681;28;20057;-66
2021/12/05 14:39:26;;;;;;;11.18;3.88;;;;;;;0.24;78.68;101076.41;5026594;28;20120;-66
2021/12/05 14:41:58;;;;;;;11.95;4.32;;;;;;;0.29;78.41;101067.19;5026476;28;20041;-66
2021/12/05 14:44:27;;;;;;;11.27;3.40;;;;;;;0.35;78.62;101070.00;5026675;28;20406;-66
2021/12/05 14:47:04;;;;;;;15.32;3.83;;;;;;;0.39;78.42;101066.72;5026560;28;20104;-66
2021/12/05 14:49:35;;;;;;;15.02;4.00;;;;;;;0.37;78.30;101063.19;5026601;28;20057;-66
2021/12/05 14:52:07;;;;;;;10.63;4.13;;;;;;;0.39;78.54;101059.00;5026320;28;20050;-67
2021/12/05 14:54:40;;;;;;;10.77;3.67;;;;;;;0.37;78.34;101058.06;5025539;28;20044;-67
2021/12/05 14:57:12;;;;;;;13.68;4.00;;;;;;;0.39;78.47;101051.28;5026022;28;20060;-67
2021/12/05 14:59:42;;;;;;;12.60;3.53;;;;;;;0.42;78.79;101046.28;5025577;28;20064;-67
2021/12/05 15:02:13;;;;;;;20.67;4.50;;;;;;;0.48;78.31;101061.06;5026214;28;20042;-67
2021/12/05 15:04:44;;;;;;;12.32;3.92;;;;;;;0.50;78.29;101053.38;5026366;28;20041;-68
2021/12/05 15:07:13;;;;;;;16.50;4.22;;;;;;;0.48;78.69;101049.91;5025245;28;20339;-67
2021/12/05 15:09:44;;;;;;;11.98;4.13;;;;;;;0.46;78.83;101046.41;5026383;28;20064;-68
2021/12/05 15:12:18;;;;;;;11.43;3.90;;;;;;;0.49;78.70;101051.63;5026327;28;20053;-68
2021/12/05 15:14:50;;;;;;;13.20;4.93;;;;;;;0.47;78.88;101048.13;5026155;28;20739;-67
2021/12/05 15:17:22;;;;;;;13.65;4.10;;;;;;;0.48;78.92;101055.03;5026053;28;20045;-68
2021/12/05 15:19:53;;;;;;;15.63;5.38;;;;;;;0.50;79.16;101061.09;5026336;28;20042;-68
2021/12/05 15:22:23;;;;;;;9.93;3.50;;;;;;;0.55;79.24;101052.75;5025718;28;20052;-67
2021/12/05 15:24:54;;;;;;;17.23;4.13;;;;;;;0.54;79.08;101060.41;5025497;28;20081;-67
2021/12/05 15:27:26;;;;;;;12.82;4.05;;;;;;;0.58;79.14;101057.13;5023741;28;20307;-67
2021/12/05 15:29:57;;;;;;;8.95;3.97;;;;;;;0.56;79.32;101049.34;5022281;28;20053;-67
2021/12/05 15:32:30;;;;;;;10.88;3.67;;;;;;;0.61;79.37;101057.25;5025385;28;20042;-68
2021/12/05 15:35:04;;;;;;;18.40;4.05;;;;;;;0.63;79.06;101045.31;4991555;28;20110;-69
2021/12/05 15:37:33;;;;;;;11.05;3.95;;;;;;;0.62;79.11;101046.13;5025078;28;20362;-68
2021/12/05 15:40:05;;;;;;;10.20;4.00;;;;;;;0.74;78.97;101064.56;5023449;28;20113;-68
2021/12/05 15:42:37;;;;;;;14.88;4.35;;;;;;;0.74;78.76;101055.97;5024713;28;20125;-68
2021/12/05 15:45:09;;;;;;;15.77;4.35;;;;;;;0.74;78.82;101059.44;5024029;28;20115;-69
2021/12/05 15:47:41;;;;;;;12.88;4.13;;;;;;;0.73;79.31;101057.69;5024858;28;20073;-68
2021/12/05 15:50:12;;;;;;;14.98;4.70;;;;;;;0.76;79.22;101052.66;5025443;28;20056;-68
2021/12/05 15:52:43;;;;;;;14.50;4.45;;;;;;;0.75;79.22;101045.75;5025323;28;20077;-68
2021/12/05 15:55:15;;;;;;;10.88;3.60;;;;;;;0.50;79.33;101001.94;5025454;28;20540;-69
2021/12/05 15:57:48;;;;;;;13.65;3.88;;;;;;;0.80;79.52;101049.38;5024621;28;20081;-69
2021/12/05 16:00:22;;;;;;;12.07;4.38;;;;;;;0.79;79.29;101052.75;5025134;28;20050;-68
2021/12/05 16:03:01;;;;;;;17.05;4.22;;;;;;;0.82;79.36;101063.19;5024467;28;20471;-69
2021/12/05 16:05:30;;;;;;;14.25;3.53;;;;;;;0.80;79.70;101064.81;5024565;28;20049;-68
2021/12/05 16:08:05;;;;;;;17.25;4.72;;;;;;;0.85;79.41;101068.41;5025289;28;20045;-70
2021/12/05 16:10:35;;;;;;;12.50;4.03;;;;;;;0.84;79.80;101076.94;5023630;28;20060;-68
2021/12/05 16:13:12;;;;;;;13.43;4.00;;;;;;;0.84;79.62;101066.66;5023394;28;20076;-70